sensor_id;sensor_type;location;lat;lon;timestamp;temperature;humidity
19174;DHT22;9719;49.322;8.536;2022-11-06T00:03:56;7.60;92.90
19174;DHT22;9719;49.322;8.536;2022-11-06T00:08:59;7.60;92.90
19174;DHT22;9719;49.322;8.536;2022-11-06T00:14:03;7.60;93.00
19174;DHT22;9719;49.322;8.536;2022-11-06T00:19:06;7.60;93.00
19174;DHT22;9719;49.322;8.536;2022-11-06T00:24:09;7.60;93.00
19174;DHT22;9719;49.322;8.536;2022-11-06T00:29:14;7.50;93.00
19174;DHT22;9719;49.322;8.536;2022-11-06T00:34:16;7.50;93.00
19174;DHT22;9719;49.322;8.536;2022-11-06T00:39:17;7.50;93.00
19174;DHT22;9719;49.322;8.536;2022-11-06T00:44:21;7.40;93.00
19174;DHT22;9719;49.322;8.536;2022-11-06T00:49:22;7.40;93.10
19174;DHT22;9719;49.322;8.536;2022-11-06T00:54:24;7.30;93.20
19174;DHT22;9719;49.322;8.536;2022-11-06T00:59:27;7.30;93.30
19174;DHT22;9719;49.322;8.536;2022-11-06T01:04:29;7.20;93.20
19174;DHT22;9719;49.322;8.536;2022-11-06T01:09:31;7.20;93.30
19174;DHT22;9719;49.322;8.536;2022-11-06T01:14:34;7.20;93.50
19174;DHT22;9719;49.322;8.536;2022-11-06T01:19:36;7.20;93.50
19174;DHT22;9719;49.322;8.536;2022-11-06T01:24:38;7.10;93.50
19174;DHT22;9719;49.322;8.536;2022-11-06T01:29:42;7.10;93.60
19174;DHT22;9719;49.322;8.536;2022-11-06T01:34:44;7.10;93.70
19174;DHT22;9719;49.322;8.536;2022-11-06T01:39:47;7.00;93.60
19174;DHT22;9719;49.322;8.536;2022-11-06T01:45:24;7.00;93.70
19174;DHT22;9719;49.322;8.536;2022-11-06T01:50:26;6.90;93.80
19174;DHT22;9719;49.322;8.536;2022-11-06T01:55:30;6.90;93.70
19174;DHT22;9719;49.322;8.536;2022-11-06T02:00:34;6.90;93.90
19174;DHT22;9719;49.322;8.536;2022-11-06T02:05:36;6.80;93.90
19174;DHT22;9719;49.322;8.536;2022-11-06T02:10:38;6.80;93.90
19174;DHT22;9719;49.322;8.536;2022-11-06T02:15:47;6.90;94.10
19174;DHT22;9719;49.322;8.536;2022-11-06T02:21:04;6.70;94.10
19174;DHT22;9719;49.322;8.536;2022-11-06T02:26:24;6.70;94.10
19174;DHT22;9719;49.322;8.536;2022-11-06T02:31:33;6.70;94.10
19174;DHT22;9719;49.322;8.536;2022-11-06T02:36:39;6.60;94.10
19174;DHT22;9719;49.322;8.536;2022-11-06T02:41:45;6.60;94.20
19174;DHT22;9719;49.322;8.536;2022-11-06T02:46:50;6.60;94.20
19174;DHT22;9719;49.322;8.536;2022-11-06T02:51:58;6.50;94.30
19174;DHT22;9719;49.322;8.536;2022-11-06T02:57:05;6.40;94.10
19174;DHT22;9719;49.322;8.536;2022-11-06T03:02:15;6.50;94.30
19174;DHT22;9719;49.322;8.536;2022-11-06T03:07:21;6.50;94.50
19174;DHT22;9719;49.322;8.536;2022-11-06T03:12:29;6.50;94.40
19174;DHT22;9719;49.322;8.536;2022-11-06T03:17:38;6.40;94.30
19174;DHT22;9719;49.322;8.536;2022-11-06T03:22:48;6.40;94.40
19174;DHT22;9719;49.322;8.536;2022-11-06T03:28:00;6.30;94.40
19174;DHT22;9719;49.322;8.536;2022-11-06T03:33:08;6.30;94.50
19174;DHT22;9719;49.322;8.536;2022-11-06T03:38:13;6.20;94.40
19174;DHT22;9719;49.322;8.536;2022-11-06T03:43:20;6.20;94.40
19174;DHT22;9719;49.322;8.536;2022-11-06T03:48:28;6.20;94.30
19174;DHT22;9719;49.322;8.536;2022-11-06T03:53:37;6.20;94.30
19174;DHT22;9719;49.322;8.536;2022-11-06T03:58:44;6.10;94.40
19174;DHT22;9719;49.322;8.536;2022-11-06T04:03:50;6.00;94.30
19174;DHT22;9719;49.322;8.536;2022-11-06T04:08:59;6.00;94.40
19174;DHT22;9719;49.322;8.536;2022-11-06T04:14:21;6.00;94.40
19174;DHT22;9719;49.322;8.536;2022-11-06T04:19:26;5.90;94.50
19174;DHT22;9719;49.322;8.536;2022-11-06T04:24:36;5.90;94.60
19174;DHT22;9719;49.322;8.536;2022-11-06T04:30:06;5.80;94.50
19174;DHT22;9719;49.322;8.536;2022-11-06T04:35:16;5.80;94.60
19174;DHT22;9719;49.322;8.536;2022-11-06T04:40:25;5.80;94.60
19174;DHT22;9719;49.322;8.536;2022-11-06T04:45:32;5.80;94.70
19174;DHT22;9719;49.322;8.536;2022-11-06T04:50:41;5.70;94.80
19174;DHT22;9719;49.322;8.536;2022-11-06T04:55:46;5.70;94.70
19174;DHT22;9719;49.322;8.536;2022-11-06T05:00:49;5.70;94.80
19174;DHT22;9719;49.322;8.536;2022-11-06T05:05:52;5.70;94.80
19174;DHT22;9719;49.322;8.536;2022-11-06T05:10:54;5.60;94.50
19174;DHT22;9719;49.322;8.536;2022-11-06T05:15:57;5.60;94.40
19174;DHT22;9719;49.322;8.536;2022-11-06T05:21:01;5.60;94.60
19174;DHT22;9719;49.322;8.536;2022-11-06T05:26:20;5.40;94.50
19174;DHT22;9719;49.322;8.536;2022-11-06T05:31:24;5.40;94.50
19174;DHT22;9719;49.322;8.536;2022-11-06T05:36:27;5.30;94.50
19174;DHT22;9719;49.322;8.536;2022-11-06T05:41:29;5.20;94.70
19174;DHT22;9719;49.322;8.536;2022-11-06T05:46:31;5.20;94.90
19174;DHT22;9719;49.322;8.536;2022-11-06T05:51:34;5.20;94.90
19174;DHT22;9719;49.322;8.536;2022-11-06T05:56:36;5.10;95.00
19174;DHT22;9719;49.322;8.536;2022-11-06T06:01:38;5.10;95.20
19174;DHT22;9719;49.322;8.536;2022-11-06T06:06:41;5.20;95.20
19174;DHT22;9719;49.322;8.536;2022-11-06T06:11:43;5.20;95.40
19174;DHT22;9719;49.322;8.536;2022-11-06T06:16:46;5.10;95.40
19174;DHT22;9719;49.322;8.536;2022-11-06T06:21:49;5.30;95.60
19174;DHT22;9719;49.322;8.536;2022-11-06T06:26:51;5.30;95.60
19174;DHT22;9719;49.322;8.536;2022-11-06T06:31:53;5.30;95.70
19174;DHT22;9719;49.322;8.536;2022-11-06T06:36:56;5.30;95.80
19174;DHT22;9719;49.322;8.536;2022-11-06T06:41:58;5.30;95.80
19174;DHT22;9719;49.322;8.536;2022-11-06T06:47:00;5.40;95.80
19174;DHT22;9719;49.322;8.536;2022-11-06T06:52:03;5.40;95.80
19174;DHT22;9719;49.322;8.536;2022-11-06T06:57:07;5.40;95.80
19174;DHT22;9719;49.322;8.536;2022-11-06T07:02:09;5.50;96.10
19174;DHT22;9719;49.322;8.536;2022-11-06T07:07:12;5.50;96.10
19174;DHT22;9719;49.322;8.536;2022-11-06T07:12:14;5.60;96.20
19174;DHT22;9719;49.322;8.536;2022-11-06T07:17:16;5.70;96.40
19174;DHT22;9719;49.322;8.536;2022-11-06T07:22:19;5.80;96.40
19174;DHT22;9719;49.322;8.536;2022-11-06T07:27:21;5.80;96.40
19174;DHT22;9719;49.322;8.536;2022-11-06T07:32:23;5.90;96.20
19174;DHT22;9719;49.322;8.536;2022-11-06T07:37:26;6.00;96.20
19174;DHT22;9719;49.322;8.536;2022-11-06T07:42:28;6.00;96.10
19174;DHT22;9719;49.322;8.536;2022-11-06T07:47:30;6.10;96.10
19174;DHT22;9719;49.322;8.536;2022-11-06T07:52:33;6.10;96.30
19174;DHT22;9719;49.322;8.536;2022-11-06T07:57:36;6.20;96.40
19174;DHT22;9719;49.322;8.536;2022-11-06T08:02:38;6.30;96.60
19174;DHT22;9719;49.322;8.536;2022-11-06T08:07:41;6.40;96.50
19174;DHT22;9719;49.322;8.536;2022-11-06T08:12:43;6.60;96.60
19174;DHT22;9719;49.322;8.536;2022-11-06T08:17:44;6.80;96.40
19174;DHT22;9719;49.322;8.536;2022-11-06T08:22:48;6.80;96.30
19174;DHT22;9719;49.322;8.536;2022-11-06T08:27:49;6.90;96.40
19174;DHT22;9719;49.322;8.536;2022-11-06T08:32:54;7.10;96.50
19174;DHT22;9719;49.322;8.536;2022-11-06T08:37:58;7.30;96.50
19174;DHT22;9719;49.322;8.536;2022-11-06T08:42:59;7.40;96.30
19174;DHT22;9719;49.322;8.536;2022-11-06T08:48:03;7.60;96.20
19174;DHT22;9719;49.322;8.536;2022-11-06T08:53:06;7.80;96.20
19174;DHT22;9719;49.322;8.536;2022-11-06T08:58:08;8.00;96.20
19174;DHT22;9719;49.322;8.536;2022-11-06T09:03:12;8.40;96.40
19174;DHT22;9719;49.322;8.536;2022-11-06T09:08:15;8.70;95.70
19174;DHT22;9719;49.322;8.536;2022-11-06T09:13:17;8.90;95.00
19174;DHT22;9719;49.322;8.536;2022-11-06T09:18:19;9.00;94.60
19174;DHT22;9719;49.322;8.536;2022-11-06T09:23:23;9.10;94.80
19174;DHT22;9719;49.322;8.536;2022-11-06T09:28:25;9.70;95.80
19174;DHT22;9719;49.322;8.536;2022-11-06T09:33:26;10.60;95.50
19174;DHT22;9719;49.322;8.536;2022-11-06T09:38:30;11.60;93.70
19174;DHT22;9719;49.322;8.536;2022-11-06T09:43:54;12.40;92.20
19174;DHT22;9719;49.322;8.536;2022-11-06T09:49:04;13.30;90.70
19174;DHT22;9719;49.322;8.536;2022-11-06T09:54:11;13.70;88.50
19174;DHT22;9719;49.322;8.536;2022-11-06T09:59:16;13.60;87.60
19174;DHT22;9719;49.322;8.536;2022-11-06T10:04:34;13.40;87.40
19174;DHT22;9719;49.322;8.536;2022-11-06T10:09:40;13.20;87.60
19174;DHT22;9719;49.322;8.536;2022-11-06T10:14:53;13.20;87.50
19174;DHT22;9719;49.322;8.536;2022-11-06T10:20:07;13.20;87.10
19174;DHT22;9719;49.322;8.536;2022-11-06T10:25:19;13.10;86.50
19174;DHT22;9719;49.322;8.536;2022-11-06T10:30:22;13.20;86.30
19174;DHT22;9719;49.322;8.536;2022-11-06T10:35:26;13.10;85.80
19174;DHT22;9719;49.322;8.536;2022-11-06T10:40:32;13.00;85.20
19174;DHT22;9719;49.322;8.536;2022-11-06T10:45:38;13.00;85.60
19174;DHT22;9719;49.322;8.536;2022-11-06T10:50:44;13.10;85.60
19174;DHT22;9719;49.322;8.536;2022-11-06T10:56:11;13.00;85.00
19174;DHT22;9719;49.322;8.536;2022-11-06T11:01:16;13.10;85.30
19174;DHT22;9719;49.322;8.536;2022-11-06T11:06:18;13.20;85.00
19174;DHT22;9719;49.322;8.536;2022-11-06T11:11:24;13.30;85.00
19174;DHT22;9719;49.322;8.536;2022-11-06T11:16:28;13.50;84.70
19174;DHT22;9719;49.322;8.536;2022-11-06T11:21:30;13.80;84.30
19174;DHT22;9719;49.322;8.536;2022-11-06T11:26:37;14.40;84.30
19174;DHT22;9719;49.322;8.536;2022-11-06T11:31:44;15.00;83.30
19174;DHT22;9719;49.322;8.536;2022-11-06T11:36:52;15.70;82.60
19174;DHT22;9719;49.322;8.536;2022-11-06T11:42:15;16.30;81.30
19174;DHT22;9719;49.322;8.536;2022-11-06T11:47:21;16.80;80.30
19174;DHT22;9719;49.322;8.536;2022-11-06T11:52:24;16.80;77.50
19174;DHT22;9719;49.322;8.536;2022-11-06T11:57:27;16.40;76.30
19174;DHT22;9719;49.322;8.536;2022-11-06T12:02:34;15.90;76.90
19174;DHT22;9719;49.322;8.536;2022-11-06T12:07:39;15.60;77.10
19174;DHT22;9719;49.322;8.536;2022-11-06T12:12:46;15.30;77.10
19174;DHT22;9719;49.322;8.536;2022-11-06T12:17:52;15.00;76.50
19174;DHT22;9719;49.322;8.536;2022-11-06T12:22:55;14.70;77.10
19174;DHT22;9719;49.322;8.536;2022-11-06T12:28:01;14.50;77.10
19174;DHT22;9719;49.322;8.536;2022-11-06T12:33:10;14.20;77.30
19174;DHT22;9719;49.322;8.536;2022-11-06T12:38:19;14.10;77.30
19174;DHT22;9719;49.322;8.536;2022-11-06T12:43:28;13.90;77.30
19174;DHT22;9719;49.322;8.536;2022-11-06T12:48:42;13.80;77.80
19174;DHT22;9719;49.322;8.536;2022-11-06T12:53:56;13.80;77.70
19174;DHT22;9719;49.322;8.536;2022-11-06T12:59:10;13.70;77.90
19174;DHT22;9719;49.322;8.536;2022-11-06T13:04:28;13.80;77.90
19174;DHT22;9719;49.322;8.536;2022-11-06T13:09:35;13.70;77.80
19174;DHT22;9719;49.322;8.536;2022-11-06T13:14:49;13.60;77.30
19174;DHT22;9719;49.322;8.536;2022-11-06T13:19:59;13.40;77.80
19174;DHT22;9719;49.322;8.536;2022-11-06T13:25:11;13.30;77.90
19174;DHT22;9719;49.322;8.536;2022-11-06T13:30:18;13.20;78.00
19174;DHT22;9719;49.322;8.536;2022-11-06T13:35:21;13.20;78.10
19174;DHT22;9719;49.322;8.536;2022-11-06T13:40:27;13.10;78.30
19174;DHT22;9719;49.322;8.536;2022-11-06T13:45:37;13.10;78.30
19174;DHT22;9719;49.322;8.536;2022-11-06T13:50:49;13.00;78.30
19174;DHT22;9719;49.322;8.536;2022-11-06T13:56:05;13.00;78.50
19174;DHT22;9719;49.322;8.536;2022-11-06T14:01:21;13.00;78.80
19174;DHT22;9719;49.322;8.536;2022-11-06T14:06:28;12.90;78.80
19174;DHT22;9719;49.322;8.536;2022-11-06T14:11:33;12.90;79.20
19174;DHT22;9719;49.322;8.536;2022-11-06T14:16:37;12.90;79.10
19174;DHT22;9719;49.322;8.536;2022-11-06T14:21:45;12.90;79.00
19174;DHT22;9719;49.322;8.536;2022-11-06T14:26:48;12.90;79.20
19174;DHT22;9719;49.322;8.536;2022-11-06T14:31:59;12.90;79.00
19174;DHT22;9719;49.322;8.536;2022-11-06T14:42:35;12.90;79.20
19174;DHT22;9719;49.322;8.536;2022-11-06T14:47:46;12.90;79.20
19174;DHT22;9719;49.322;8.536;2022-11-06T14:52:54;12.90;79.20
19174;DHT22;9719;49.322;8.536;2022-11-06T14:57:59;12.90;79.20
19174;DHT22;9719;49.322;8.536;2022-11-06T15:03:19;12.80;79.20
19174;DHT22;9719;49.322;8.536;2022-11-06T15:19:41;12.70;79.40
19174;DHT22;9719;49.322;8.536;2022-11-06T15:24:46;12.50;79.60
19174;DHT22;9719;49.322;8.536;2022-11-06T15:29:52;12.50;79.80
19174;DHT22;9719;49.322;8.536;2022-11-06T15:35:01;12.60;79.90
19174;DHT22;9719;49.322;8.536;2022-11-06T15:40:05;12.50;80.10
19174;DHT22;9719;49.322;8.536;2022-11-06T15:45:19;12.50;80.00
19174;DHT22;9719;49.322;8.536;2022-11-06T15:50:25;12.50;80.10
19174;DHT22;9719;49.322;8.536;2022-11-06T15:55:29;12.50;80.30
19174;DHT22;9719;49.322;8.536;2022-11-06T16:00:33;12.40;80.50
19174;DHT22;9719;49.322;8.536;2022-11-06T16:05:38;12.40;80.50
19174;DHT22;9719;49.322;8.536;2022-11-06T16:10:41;12.40;80.70
19174;DHT22;9719;49.322;8.536;2022-11-06T16:15:46;12.30;80.90
19174;DHT22;9719;49.322;8.536;2022-11-06T16:20:52;12.30;80.90
19174;DHT22;9719;49.322;8.536;2022-11-06T16:26:02;12.30;81.10
19174;DHT22;9719;49.322;8.536;2022-11-06T16:31:08;12.20;81.10
19174;DHT22;9719;49.322;8.536;2022-11-06T16:36:13;12.20;81.30
19174;DHT22;9719;49.322;8.536;2022-11-06T16:41:15;12.20;81.50
19174;DHT22;9719;49.322;8.536;2022-11-06T16:47:11;12.20;81.70
19174;DHT22;9719;49.322;8.536;2022-11-06T16:52:20;12.20;81.80
19174;DHT22;9719;49.322;8.536;2022-11-06T16:57:25;12.10;81.90
19174;DHT22;9719;49.322;8.536;2022-11-06T17:02:30;12.10;82.00
19174;DHT22;9719;49.322;8.536;2022-11-06T17:07:34;12.00;82.10
19174;DHT22;9719;49.322;8.536;2022-11-06T17:12:36;12.10;82.40
19174;DHT22;9719;49.322;8.536;2022-11-06T17:17:38;12.00;82.40
19174;DHT22;9719;49.322;8.536;2022-11-06T17:22:41;12.00;82.60
19174;DHT22;9719;49.322;8.536;2022-11-06T17:27:43;11.90;82.80
19174;DHT22;9719;49.322;8.536;2022-11-06T17:32:44;11.90;82.70
19174;DHT22;9719;49.322;8.536;2022-11-06T17:37:47;11.80;82.70
19174;DHT22;9719;49.322;8.536;2022-11-06T17:42:49;11.80;82.90
19174;DHT22;9719;49.322;8.536;2022-11-06T17:47:52;11.70;83.00
19174;DHT22;9719;49.322;8.536;2022-11-06T17:52:55;11.70;83.20
19174;DHT22;9719;49.322;8.536;2022-11-06T17:57:57;11.60;83.20
19174;DHT22;9719;49.322;8.536;2022-11-06T18:03:00;11.50;83.30
19174;DHT22;9719;49.322;8.536;2022-11-06T18:08:03;11.40;83.30
19174;DHT22;9719;49.322;8.536;2022-11-06T18:13:06;11.40;83.60
19174;DHT22;9719;49.322;8.536;2022-11-06T18:18:09;11.40;83.80
19174;DHT22;9719;49.322;8.536;2022-11-06T18:23:13;11.30;83.90
19174;DHT22;9719;49.322;8.536;2022-11-06T18:28:15;11.20;84.00
19174;DHT22;9719;49.322;8.536;2022-11-06T18:33:17;11.20;84.10
19174;DHT22;9719;49.322;8.536;2022-11-06T18:38:20;11.30;84.30
19174;DHT22;9719;49.322;8.536;2022-11-06T18:43:22;11.20;84.30
19174;DHT22;9719;49.322;8.536;2022-11-06T18:48:24;11.30;84.40
19174;DHT22;9719;49.322;8.536;2022-11-06T18:53:28;11.30;84.30
19174;DHT22;9719;49.322;8.536;2022-11-06T18:58:31;11.30;84.30
19174;DHT22;9719;49.322;8.536;2022-11-06T19:03:33;11.30;84.40
19174;DHT22;9719;49.322;8.536;2022-11-06T19:08:37;11.30;84.30
19174;DHT22;9719;49.322;8.536;2022-11-06T19:13:40;11.30;84.50
19174;DHT22;9719;49.322;8.536;2022-11-06T19:18:43;11.20;84.50
19174;DHT22;9719;49.322;8.536;2022-11-06T19:23:48;11.20;84.70
19174;DHT22;9719;49.322;8.536;2022-11-06T19:28:52;11.20;84.90
19174;DHT22;9719;49.322;8.536;2022-11-06T19:34:00;11.20;84.90
19174;DHT22;9719;49.322;8.536;2022-11-06T19:39:05;11.20;85.00
19174;DHT22;9719;49.322;8.536;2022-11-06T19:44:09;11.10;85.20
19174;DHT22;9719;49.322;8.536;2022-11-06T19:49:18;11.20;85.20
19174;DHT22;9719;49.322;8.536;2022-11-06T19:54:23;11.20;85.40
19174;DHT22;9719;49.322;8.536;2022-11-06T19:59:25;11.30;85.50
19174;DHT22;9719;49.322;8.536;2022-11-06T20:04:27;11.30;85.40
19174;DHT22;9719;49.322;8.536;2022-11-06T20:09:30;11.40;85.40
19174;DHT22;9719;49.322;8.536;2022-11-06T20:14:33;11.30;85.40
19174;DHT22;9719;49.322;8.536;2022-11-06T20:19:36;11.40;85.30
19174;DHT22;9719;49.322;8.536;2022-11-06T20:24:40;11.40;85.30
19174;DHT22;9719;49.322;8.536;2022-11-06T20:29:43;11.50;85.40
19174;DHT22;9719;49.322;8.536;2022-11-06T20:34:45;11.40;85.20
19174;DHT22;9719;49.322;8.536;2022-11-06T20:39:48;11.40;85.00
19174;DHT22;9719;49.322;8.536;2022-11-06T20:44:51;11.30;85.20
19174;DHT22;9719;49.322;8.536;2022-11-06T20:49:53;11.30;85.20
19174;DHT22;9719;49.322;8.536;2022-11-06T20:54:56;11.20;85.20
19174;DHT22;9719;49.322;8.536;2022-11-06T20:59:58;11.20;85.40
19174;DHT22;9719;49.322;8.536;2022-11-06T21:05:00;11.30;85.40
19174;DHT22;9719;49.322;8.536;2022-11-06T21:10:04;11.30;85.40
19174;DHT22;9719;49.322;8.536;2022-11-06T21:15:06;11.40;85.20
19174;DHT22;9719;49.322;8.536;2022-11-06T21:20:09;11.40;85.20
19174;DHT22;9719;49.322;8.536;2022-11-06T21:25:12;11.60;85.20
19174;DHT22;9719;49.322;8.536;2022-11-06T21:30:14;11.60;85.20
19174;DHT22;9719;49.322;8.536;2022-11-06T21:35:16;11.60;85.10
19174;DHT22;9719;49.322;8.536;2022-11-06T21:40:19;11.70;85.10
19174;DHT22;9719;49.322;8.536;2022-11-06T21:45:21;11.70;85.00
19174;DHT22;9719;49.322;8.536;2022-11-06T21:50:23;11.70;85.00
19174;DHT22;9719;49.322;8.536;2022-11-06T21:55:27;11.80;84.90
19174;DHT22;9719;49.322;8.536;2022-11-06T22:00:46;11.70;84.80
19174;DHT22;9719;49.322;8.536;2022-11-06T22:05:48;11.70;84.70
19174;DHT22;9719;49.322;8.536;2022-11-06T22:10:51;11.70;84.70
19174;DHT22;9719;49.322;8.536;2022-11-06T22:15:53;11.70;84.70
19174;DHT22;9719;49.322;8.536;2022-11-06T22:21:04;11.70;84.70
19174;DHT22;9719;49.322;8.536;2022-11-06T22:26:09;11.70;84.60
19174;DHT22;9719;49.322;8.536;2022-11-06T22:31:11;11.80;84.60
19174;DHT22;9719;49.322;8.536;2022-11-06T22:36:14;11.80;84.50
19174;DHT22;9719;49.322;8.536;2022-11-06T22:41:20;11.80;84.50
19174;DHT22;9719;49.322;8.536;2022-11-06T22:46:22;11.90;84.50
19174;DHT22;9719;49.322;8.536;2022-11-06T22:51:26;11.90;84.50
19174;DHT22;9719;49.322;8.536;2022-11-06T22:56:30;11.90;84.30
19174;DHT22;9719;49.322;8.536;2022-11-06T23:01:32;11.90;84.30
19174;DHT22;9719;49.322;8.536;2022-11-06T23:06:34;12.00;84.30
19174;DHT22;9719;49.322;8.536;2022-11-06T23:11:37;11.90;84.30
19174;DHT22;9719;49.322;8.536;2022-11-06T23:16:39;11.80;84.40
19174;DHT22;9719;49.322;8.536;2022-11-06T23:21:59;11.90;84.50
19174;DHT22;9719;49.322;8.536;2022-11-06T23:27:20;11.90;84.70
19174;DHT22;9719;49.322;8.536;2022-11-06T23:32:23;11.90;84.80
19174;DHT22;9719;49.322;8.536;2022-11-06T23:37:25;11.90;85.00
19174;DHT22;9719;49.322;8.536;2022-11-06T23:42:28;11.90;85.00
19174;DHT22;9719;49.322;8.536;2022-11-06T23:47:30;11.90;85.20
19174;DHT22;9719;49.322;8.536;2022-11-06T23:52:32;12.00;85.20
19174;DHT22;9719;49.322;8.536;2022-11-06T23:57:36;11.90;85.30
